createdAt,value
2018-05-21T00:00:46.840Z,72.90
2018-05-21T00:03:20.942Z,72.50
2018-05-21T00:05:54.950Z,72.70
2018-05-21T00:08:28.800Z,72.70
2018-05-21T00:11:03.213Z,72.60
2018-05-21T00:13:38.064Z,72.90
2018-05-21T00:16:12.470Z,72.90
2018-05-21T00:18:46.587Z,72.90
2018-05-21T00:21:21.583Z,72.00
2018-05-21T00:23:55.388Z,72.00
2018-05-21T00:26:30.014Z,71.80
2018-05-21T00:29:04.790Z,70.70
2018-05-21T00:31:38.784Z,70.70
2018-05-21T00:34:14.463Z,70.20
2018-05-21T00:36:48.569Z,69.50
2018-05-21T00:39:22.902Z,69.50
2018-05-21T00:41:57.056Z,68.20
2018-05-21T00:44:31.166Z,67.60
2018-05-21T00:47:06.101Z,67.00
2018-05-21T00:49:40.130Z,65.40
2018-05-21T00:52:14.207Z,64.90
2018-05-21T00:55:02.572Z,63.80
2018-05-21T00:57:39.452Z,63.10
2018-05-21T01:00:13.780Z,63.00
2018-05-21T01:02:50.086Z,62.00
2018-05-21T01:05:25.312Z,61.90
2018-05-21T01:07:59.608Z,61.90
2018-05-21T01:10:35.244Z,61.30
2018-05-21T01:13:10.436Z,61.00
2018-05-21T01:15:45.309Z,59.90
2018-05-21T01:18:19.762Z,60.00
2018-05-21T01:20:55.172Z,59.00
2018-05-21T01:23:29.263Z,57.90
2018-05-21T01:26:03.414Z,57.60
2018-05-21T01:28:38.382Z,57.90
2018-05-21T01:31:12.309Z,57.80
2018-05-21T01:33:46.950Z,57.00
2018-05-21T01:36:21.961Z,55.50
2018-05-21T01:38:56.190Z,55.50
2018-05-21T01:41:30.343Z,55.50
2018-05-21T01:44:04.691Z,54.60
2018-05-21T01:46:39.137Z,54.70
2018-05-21T01:49:14.030Z,54.50
2018-05-21T01:51:48.415Z,54.40
2018-05-21T01:54:22.568Z,54.20
2018-05-21T01:56:56.567Z,53.80
2018-05-21T01:59:31.659Z,53.60
2018-05-21T02:02:05.923Z,53.60
2018-05-21T02:04:39.877Z,54.00
2018-05-21T02:07:14.959Z,54.40
2018-05-21T02:09:49.299Z,54.50
2018-05-21T02:12:24.073Z,54.90
2018-05-21T02:14:58.139Z,54.90
2018-05-21T02:17:32.344Z,54.80
2018-05-21T02:20:06.559Z,54.60
2018-05-21T02:22:40.670Z,54.50
2018-05-21T02:25:15.898Z,54.70
2018-05-21T02:27:50.931Z,54.90
2018-05-21T02:30:25.208Z,54.90
2018-05-21T02:32:59.499Z,54.90
2018-05-21T02:35:33.682Z,54.80
2018-05-21T02:38:08.020Z,54.80
2018-05-21T02:40:42.624Z,54.90
2018-05-21T02:43:16.977Z,54.80
2018-05-21T02:45:51.087Z,54.60
2018-05-21T02:48:25.287Z,54.90
2018-05-21T02:50:59.825Z,55.00
2018-05-21T02:53:35.313Z,55.00
2018-05-21T02:56:10.525Z,55.20
2018-05-21T02:58:45.647Z,55.20
2018-05-21T03:01:19.896Z,56.10
2018-05-21T03:03:54.795Z,55.80
2018-05-21T03:06:28.935Z,55.70
2018-05-21T03:09:03.546Z,55.70
2018-05-21T03:11:39.135Z,56.00
2018-05-21T03:14:13.920Z,56.00
2018-05-21T03:16:48.786Z,56.00
2018-05-21T03:19:22.753Z,56.70
2018-05-21T03:21:56.617Z,56.20
2018-05-21T03:24:31.576Z,56.30
2018-05-21T03:27:05.408Z,56.20
2018-05-21T03:29:39.287Z,56.50
2018-05-21T03:32:13.128Z,56.70
2018-05-21T03:34:48.227Z,56.80
2018-05-21T03:37:22.476Z,56.80
2018-05-21T03:39:57.537Z,56.80
2018-05-21T03:42:32.399Z,56.70
2018-05-21T03:45:13.934Z,57.00
2018-05-21T03:47:47.782Z,56.90
2018-05-21T03:50:21.777Z,56.80
2018-05-21T03:52:59.749Z,56.70
2018-05-21T03:55:33.723Z,56.60
2018-05-21T04:01:22.110Z,56.50
2018-05-21T04:03:56.550Z,56.70
2018-05-21T04:06:31.377Z,56.70
2018-05-21T04:09:05.534Z,56.30
2018-05-21T04:11:40.425Z,56.30
2018-05-21T04:14:15.459Z,56.30
2018-05-21T04:16:51.462Z,55.90
2018-05-21T04:19:25.579Z,55.80
2018-05-21T04:22:00.616Z,55.80
2018-05-21T04:24:35.481Z,55.30
2018-05-21T04:27:09.622Z,55.30
2018-05-21T04:29:43.519Z,55.00
2018-05-21T04:32:18.350Z,54.90
2018-05-21T04:34:52.437Z,54.90
2018-05-21T04:37:27.488Z,54.80
2018-05-21T04:40:01.653Z,54.80
2018-05-21T04:42:35.753Z,54.50
2018-05-21T04:45:10.762Z,54.30
2018-05-21T04:47:46.360Z,54.00
2018-05-21T04:50:21.208Z,53.60
2018-05-21T04:52:55.359Z,53.50
2018-05-21T04:55:29.471Z,53.50
2018-05-21T04:58:03.470Z,53.60
2018-05-21T05:00:37.453Z,53.10
2018-05-21T05:03:12.740Z,53.20
2018-05-21T05:05:46.899Z,53.20
2018-05-21T05:08:22.244Z,53.20
2018-05-21T05:10:57.789Z,53.00
2018-05-21T05:13:32.110Z,53.00
2018-05-21T05:16:06.227Z,53.20
2018-05-21T05:18:40.584Z,53.40
2018-05-21T05:21:14.597Z,53.60
2018-05-21T05:23:49.123Z,53.70
2018-05-21T05:26:23.373Z,53.70
2018-05-21T05:29:01.510Z,53.50
2018-05-21T05:31:36.437Z,53.10
2018-05-21T05:34:11.371Z,52.60
2018-05-21T05:36:46.105Z,52.80
2018-05-21T05:39:21.285Z,52.10
2018-05-21T05:41:56.586Z,52.10
2018-05-21T05:44:37.558Z,51.60
2018-05-21T05:47:11.607Z,51.20
2018-05-21T05:49:46.612Z,50.10
2018-05-21T05:52:21.272Z,48.70
2018-05-21T05:54:55.412Z,48.70
2018-05-21T05:57:29.392Z,48.80
2018-05-21T06:00:03.371Z,48.40
2018-05-21T06:02:37.820Z,48.20
2018-05-21T06:05:12.773Z,46.90
2018-05-21T06:07:46.984Z,46.90
2018-05-21T06:10:20.879Z,46.20
2018-05-21T06:12:55.666Z,45.70
2018-05-21T06:15:29.677Z,45.60
2018-05-21T06:18:03.993Z,44.60
2018-05-21T06:20:37.845Z,45.00
2018-05-21T06:23:12.568Z,43.50
2018-05-21T06:25:47.096Z,43.40
2018-05-21T06:28:21.121Z,43.40
2018-05-21T06:30:54.960Z,43.50
2018-05-21T06:33:28.871Z,42.90
2018-05-21T06:36:02.774Z,42.50
2018-05-21T06:38:36.498Z,42.10
2018-05-21T06:41:10.351Z,41.70
2018-05-21T06:43:44.199Z,40.90
2018-05-21T06:46:18.104Z,40.80
2018-05-21T06:48:51.919Z,40.00
2018-05-21T06:51:25.867Z,40.10
2018-05-21T06:53:59.798Z,39.20
2018-05-21T06:56:34.236Z,39.00
2018-05-21T06:59:08.717Z,41.10
2018-05-21T07:01:42.953Z,42.80
2018-05-21T07:04:16.905Z,43.00
2018-05-21T07:06:50.855Z,43.20
2018-05-21T07:09:24.765Z,42.70
2018-05-21T07:11:58.801Z,39.30
2018-05-21T07:14:33.309Z,40.00
2018-05-21T07:17:07.244Z,39.70
2018-05-21T07:19:41.835Z,40.40
2018-05-21T07:22:16.435Z,40.10
2018-05-21T07:24:50.473Z,40.10
2018-05-21T07:27:24.224Z,41.10
2018-05-21T07:29:58.015Z,39.90
2018-05-21T07:32:31.972Z,41.30
2018-05-21T07:35:05.899Z,41.40
2018-05-21T07:37:34.884Z,40.90
2018-05-21T07:40:03.170Z,40.90
2018-05-21T07:42:31.408Z,41.90
2018-05-21T07:44:59.594Z,42.60
2018-05-21T07:47:27.836Z,43.20
2018-05-21T07:49:56.068Z,42.20
2018-05-21T07:52:25.061Z,42.30
2018-05-21T07:54:53.438Z,42.30
2018-05-21T07:57:22.458Z,42.30
2018-05-21T07:59:50.748Z,42.90
2018-05-21T08:02:19.064Z,41.60
2018-05-21T08:04:48.061Z,41.00
2018-05-21T08:07:17.077Z,41.40
2018-05-21T08:09:45.324Z,41.30
2018-05-21T08:12:14.770Z,42.20
2018-05-21T08:14:43.166Z,42.20
2018-05-21T08:17:11.517Z,42.70
2018-05-21T08:19:39.879Z,42.80
2018-05-21T08:22:09.053Z,42.40
2018-05-21T08:24:37.223Z,42.30
2018-05-21T08:27:05.490Z,41.70
2018-05-21T08:29:33.726Z,42.50
2018-05-21T08:32:02.598Z,42.00
2018-05-21T08:34:30.877Z,41.30
2018-05-21T08:36:59.065Z,41.20
2018-05-21T08:39:27.270Z,41.10
2018-05-21T08:41:55.437Z,40.70
2018-05-21T08:44:23.614Z,40.80
2018-05-21T08:46:51.840Z,41.10
2018-05-21T08:49:20.083Z,41.20
2018-05-21T08:51:48.389Z,41.70
2018-05-21T08:54:16.597Z,41.20
2018-05-21T08:56:46.329Z,41.20
2018-05-21T08:59:16.317Z,40.70
2018-05-21T09:01:44.502Z,40.70
2018-05-21T09:04:12.693Z,40.80
2018-05-21T09:06:41.681Z,41.30
2018-05-21T09:09:09.890Z,41.20
2018-05-21T09:11:38.088Z,40.70
2018-05-21T09:14:06.457Z,41.30
2018-05-21T09:16:34.715Z,41.20
2018-05-21T09:19:02.901Z,41.00
2018-05-21T09:21:31.111Z,41.00
2018-05-21T09:24:00.201Z,40.70
2018-05-21T09:26:28.394Z,40.90
2018-05-21T09:28:57.377Z,40.90
2018-05-21T09:31:25.671Z,41.40
2018-05-21T09:33:53.878Z,40.90
2018-05-21T09:36:22.066Z,40.80
2018-05-21T09:38:50.327Z,40.50
2018-05-21T09:41:18.539Z,40.70
2018-05-21T09:43:46.722Z,40.20
2018-05-21T09:46:14.928Z,40.70
2018-05-21T09:48:43.929Z,40.60
2018-05-21T09:51:12.181Z,40.50
2018-05-21T09:53:40.389Z,40.10
2018-05-21T09:56:09.060Z,39.70
2018-05-21T09:58:37.547Z,39.90
2018-05-21T10:01:05.773Z,39.30
2018-05-21T10:03:34.825Z,38.90
2018-05-21T10:06:03.029Z,38.90
2018-05-21T10:08:31.297Z,39.20
2018-05-21T10:10:59.589Z,39.00
2018-05-21T10:13:27.773Z,38.70
2018-05-21T10:15:56.798Z,38.70
2018-05-21T10:18:24.982Z,38.50
2018-05-21T10:20:53.153Z,39.10
2018-05-21T10:23:21.399Z,38.00
2018-05-21T10:25:49.626Z,37.50
2018-05-21T10:28:17.877Z,37.40
2018-05-21T10:30:46.125Z,37.50
2018-05-21T10:33:14.317Z,37.60
2018-05-21T10:35:42.503Z,36.80
2018-05-21T10:38:10.768Z,36.20
2018-05-21T10:40:38.938Z,36.00
2018-05-21T10:43:07.122Z,36.40
2018-05-21T10:45:35.323Z,36.70
2018-05-21T10:48:03.500Z,37.80
2018-05-21T10:50:31.686Z,37.30
2018-05-21T10:53:00.681Z,37.30
2018-05-21T10:55:29.661Z,37.60
2018-05-21T10:57:57.858Z,37.60
2018-05-21T11:00:26.040Z,36.40
2018-05-21T11:02:54.316Z,37.20
2018-05-21T11:05:22.487Z,36.80
2018-05-21T11:07:50.709Z,36.90
2018-05-21T11:10:18.942Z,36.90
2018-05-21T11:12:47.168Z,36.90
2018-05-21T11:15:15.413Z,37.00
2018-05-21T11:17:43.635Z,36.80
2018-05-21T11:20:12.715Z,36.80
2018-05-21T11:22:41.772Z,35.90
2018-05-21T11:25:09.953Z,35.80
2018-05-21T11:27:38.186Z,36.30
2018-05-21T11:30:06.429Z,36.30
2018-05-21T11:32:35.197Z,36.10
2018-05-21T11:35:03.401Z,35.80
2018-05-21T11:37:32.414Z,34.50
2018-05-21T11:40:01.450Z,35.40
2018-05-21T11:42:29.697Z,35.40
2018-05-21T11:44:58.662Z,35.90
2018-05-21T11:47:27.613Z,35.80
2018-05-21T11:49:55.854Z,35.80
2018-05-21T11:52:24.040Z,35.70
2018-05-21T11:54:52.229Z,35.80
2018-05-21T11:57:20.435Z,35.40
2018-05-21T11:59:49.403Z,34.50
2018-05-21T12:02:17.640Z,34.90
2018-05-21T12:04:45.846Z,34.90
2018-05-21T12:07:14.051Z,35.30
2018-05-21T12:09:43.068Z,35.40
2018-05-21T12:12:11.316Z,35.30
2018-05-21T12:14:39.527Z,34.90
2018-05-21T12:17:07.754Z,35.00
2018-05-21T12:19:35.979Z,35.10
2018-05-21T12:22:04.187Z,35.20
2018-05-21T12:24:32.366Z,35.50
2018-05-21T12:27:00.598Z,35.10
2018-05-21T12:29:28.821Z,34.40
2018-05-21T12:31:57.825Z,33.90
2018-05-21T12:34:26.761Z,33.60
2018-05-21T12:36:54.961Z,33.50
2018-05-21T12:39:23.210Z,33.10
2018-05-21T12:41:51.417Z,32.30
2018-05-21T12:44:19.689Z,32.60
2018-05-21T12:46:47.992Z,32.40
2018-05-21T12:49:16.194Z,32.00
2018-05-21T12:51:44.391Z,31.80
2018-05-21T12:54:12.579Z,30.60
2018-05-21T12:56:40.769Z,30.90
2018-05-21T12:59:08.995Z,31.50
2018-05-21T13:01:37.217Z,31.20
2018-05-21T13:04:06.207Z,30.40
2018-05-21T13:06:35.306Z,30.70
2018-05-21T13:09:04.324Z,30.60
2018-05-21T13:11:32.703Z,30.60
2018-05-21T13:14:01.633Z,30.00
2018-05-21T13:16:29.846Z,30.00
2018-05-21T13:18:58.150Z,28.10
2018-05-21T13:21:26.383Z,27.50
2018-05-21T13:23:54.574Z,26.60
2018-05-21T13:26:22.792Z,27.10
2018-05-21T13:28:51.042Z,28.30
2018-05-21T13:31:19.221Z,28.10
2018-05-21T13:33:47.400Z,27.80
2018-05-21T13:36:15.595Z,27.90
2018-05-21T13:38:43.798Z,27.80
2018-05-21T13:41:12.771Z,29.70
2018-05-21T13:43:40.938Z,29.70
2018-05-21T13:46:09.151Z,30.30
2018-05-21T13:48:38.089Z,31.50
2018-05-21T13:51:06.263Z,31.60
2018-05-21T13:53:34.445Z,32.00
2018-05-21T13:56:02.614Z,32.20
2018-05-21T13:58:30.800Z,32.50
2018-05-21T14:00:58.990Z,32.70
2018-05-21T14:03:27.946Z,33.00
2018-05-21T14:05:56.160Z,33.00
2018-05-21T14:08:25.157Z,33.50
2018-05-21T14:10:54.115Z,33.40
2018-05-21T14:13:22.330Z,33.40
2018-05-21T14:15:51.262Z,33.50
2018-05-21T14:18:19.444Z,33.50
2018-05-21T14:20:47.606Z,33.60
2018-05-21T14:23:15.774Z,33.70
2018-05-21T14:25:43.957Z,33.80
2018-05-21T14:28:12.214Z,34.00
2018-05-21T14:30:40.931Z,34.00
2018-05-21T14:33:09.200Z,33.90
2018-05-21T14:35:37.331Z,34.20
2018-05-21T14:38:05.530Z,34.30
2018-05-21T14:40:34.663Z,34.30
2018-05-21T14:43:04.238Z,34.40
2018-05-21T14:45:32.455Z,34.30
2018-05-21T14:48:01.412Z,34.30
2018-05-21T14:50:29.581Z,34.20
2018-05-21T14:52:57.762Z,34.20
2018-05-21T14:55:25.958Z,34.20
2018-05-21T14:57:54.942Z,32.80
2018-05-21T15:00:23.926Z,33.10
2018-05-21T15:02:52.114Z,33.10
2018-05-21T15:05:21.063Z,33.30
2018-05-21T15:07:49.271Z,33.30
2018-05-21T15:10:18.234Z,32.50
2018-05-21T15:12:46.407Z,32.40
2018-05-21T15:15:14.606Z,32.00
2018-05-21T15:17:44.417Z,32.20
2018-05-21T15:20:12.585Z,32.10
2018-05-21T15:23:26.038Z,29.80
2018-05-21T15:25:55.064Z,28.80
2018-05-21T15:28:23.428Z,28.70
2018-05-21T15:30:51.711Z,28.20
2018-05-21T15:33:19.964Z,27.70
2018-05-21T15:35:48.362Z,27.70
2018-05-21T15:38:17.479Z,28.10
2018-05-21T15:40:45.733Z,28.60
2018-05-21T15:43:14.085Z,28.70
2018-05-21T15:45:42.232Z,28.90
2018-05-21T15:48:11.355Z,29.10
2018-05-21T15:50:40.428Z,29.30
2018-05-21T15:53:09.357Z,29.20
2018-05-21T15:55:37.554Z,29.10
2018-05-21T15:58:05.763Z,29.10
2018-05-21T16:00:34.070Z,29.10
2018-05-21T16:03:06.073Z,29.50
2018-05-21T16:05:34.290Z,29.10
2018-05-21T16:08:03.283Z,29.50
2018-05-21T16:10:32.287Z,29.70
2018-05-21T16:13:00.546Z,29.70
2018-05-21T16:15:29.517Z,30.00
2018-05-21T16:17:57.936Z,30.00
2018-05-21T16:20:26.015Z,30.00
2018-05-21T16:22:58.462Z,30.40
2018-05-21T16:25:26.686Z,30.70
2018-05-21T16:27:54.993Z,30.50
2018-05-21T16:30:24.545Z,30.20
2018-05-21T16:32:52.799Z,30.20
2018-05-21T16:35:21.005Z,30.80
2018-05-21T16:37:50.658Z,31.00
2018-05-21T16:40:22.150Z,32.00
2018-05-21T16:42:50.487Z,32.00
2018-05-21T16:45:18.850Z,31.40
2018-05-21T16:47:47.359Z,31.40
2018-05-21T16:50:15.478Z,31.80
2018-05-21T16:52:43.732Z,32.10
2018-05-21T16:55:11.962Z,32.30
2018-05-21T16:57:40.971Z,31.60
2018-05-21T17:00:09.583Z,31.60
2018-05-21T17:02:38.550Z,31.70
2018-05-21T17:05:07.817Z,31.60
2018-05-21T17:07:37.336Z,32.60
2018-05-21T17:10:06.414Z,33.10
2018-05-21T17:12:37.398Z,33.10
2018-05-21T17:15:05.683Z,32.90
2018-05-21T17:17:34.073Z,33.30
2018-05-21T17:20:02.382Z,33.30
2018-05-21T17:22:30.615Z,33.80
2018-05-21T17:24:58.993Z,33.80
2018-05-21T17:27:32.616Z,33.90
2018-05-21T17:30:01.105Z,33.90
2018-05-21T17:32:35.493Z,33.80
2018-05-21T17:35:04.868Z,33.30
2018-05-21T17:37:41.129Z,33.40
2018-05-21T17:40:10.256Z,33.60
2018-05-21T17:42:38.585Z,33.60
2018-05-21T17:45:07.286Z,33.80
2018-05-21T17:47:41.867Z,34.10
2018-05-21T17:50:10.487Z,34.20
2018-05-21T17:52:43.393Z,34.40
2018-05-21T17:55:17.520Z,34.60
2018-05-21T17:57:46.749Z,33.60
2018-05-21T18:00:15.194Z,34.10
2018-05-21T18:02:44.827Z,34.00
2018-05-21T18:05:20.085Z,34.20
2018-05-21T18:07:50.165Z,34.30
2018-05-21T18:10:18.417Z,34.30
2018-05-21T18:12:47.501Z,34.20
2018-05-21T18:15:15.846Z,34.40
2018-05-21T18:17:44.889Z,35.10
2018-05-21T18:20:13.173Z,35.10
2018-05-21T18:22:41.438Z,35.60
2018-05-21T18:25:09.668Z,35.60
2018-05-21T18:27:42.887Z,35.30
2018-05-21T18:30:12.085Z,35.30
2018-05-21T18:32:41.014Z,35.80
2018-05-21T18:35:09.249Z,35.80
2018-05-21T18:37:41.422Z,35.70
2018-05-21T18:40:09.660Z,35.70
2018-05-21T18:42:41.894Z,35.20
2018-05-21T18:45:15.363Z,35.30
2018-05-21T18:47:44.946Z,35.30
2018-05-21T18:50:22.189Z,35.30
2018-05-21T18:52:50.593Z,35.30
2018-05-21T18:55:19.683Z,35.60
2018-05-21T18:57:47.997Z,35.50
2018-05-21T19:00:21.486Z,35.80
2018-05-21T19:02:51.722Z,36.50
2018-05-21T19:05:20.431Z,36.10
2018-05-21T19:07:55.129Z,36.00
2018-05-21T19:10:29.081Z,36.60
2018-05-21T19:13:00.865Z,36.50
2018-05-21T19:15:29.664Z,36.40
2018-05-21T19:17:58.027Z,36.80
2018-05-21T19:20:32.284Z,36.60
2018-05-21T19:23:01.310Z,36.90
2018-05-21T19:25:29.742Z,36.60
2018-05-21T19:28:02.506Z,36.80
2018-05-21T19:30:30.786Z,37.00
2018-05-21T19:33:04.028Z,37.00
2018-05-21T19:35:32.417Z,37.20
2018-05-21T19:38:02.356Z,37.30
2018-05-21T19:40:30.715Z,37.10
2018-05-21T19:42:59.726Z,37.20
2018-05-21T19:45:32.278Z,37.30
2018-05-21T19:48:01.441Z,40.00
2018-05-21T19:50:29.749Z,39.90
2018-05-21T19:52:58.730Z,39.00
2018-05-21T19:55:31.664Z,38.90
2018-05-21T19:57:59.984Z,40.30
2018-05-21T20:00:29.958Z,39.20
2018-05-21T20:02:59.166Z,39.20
2018-05-21T20:05:27.599Z,39.10
2018-05-21T20:07:56.744Z,38.80
2018-05-21T20:10:25.742Z,38.70
2018-05-21T20:12:54.086Z,39.00
2018-05-21T20:15:22.339Z,38.70
2018-05-21T20:17:51.594Z,39.20
2018-05-21T20:20:32.359Z,39.20
2018-05-21T20:23:00.727Z,39.10
2018-05-21T20:25:29.943Z,39.40
2018-05-21T20:27:59.328Z,39.50
2018-05-21T20:30:29.642Z,39.50
2018-05-21T20:32:58.959Z,39.70
2018-05-21T20:35:28.864Z,40.00
2018-05-21T20:38:01.276Z,39.70
2018-05-21T20:40:30.311Z,40.10
2018-05-21T20:43:02.393Z,40.10
2018-05-21T20:45:30.666Z,40.20
2018-05-21T20:47:59.046Z,40.40
2018-05-21T20:50:27.371Z,40.50
2018-05-21T20:52:58.591Z,40.90
2018-05-21T20:55:29.301Z,41.90
2018-05-21T20:57:59.711Z,41.10
2018-05-21T21:00:36.983Z,40.90
2018-05-21T21:03:06.266Z,41.50
2018-05-21T21:05:34.493Z,41.50
2018-05-21T21:08:03.772Z,41.60
2018-05-21T21:10:41.125Z,41.50
2018-05-21T21:13:14.085Z,41.50
2018-05-21T21:15:46.931Z,41.40
2018-05-21T21:18:15.220Z,41.30
2018-05-21T21:20:43.516Z,41.20
2018-05-21T21:23:12.545Z,41.10
2018-05-21T21:25:41.722Z,41.10
2018-05-21T21:28:10.355Z,41.10
2018-05-21T21:30:41.275Z,41.50
2018-05-21T21:33:10.581Z,41.20
2018-05-21T21:35:38.819Z,41.30
2018-05-21T21:38:07.923Z,41.20
2018-05-21T21:40:37.073Z,41.20
2018-05-21T21:43:05.368Z,41.30
2018-05-21T21:45:34.465Z,41.70
2018-05-21T21:48:03.511Z,42.00
2018-05-21T21:50:31.731Z,41.90
2018-05-21T21:53:01.729Z,42.50
2018-05-21T21:55:30.013Z,42.40
2018-05-21T21:57:58.315Z,42.50
2018-05-21T22:00:27.525Z,42.80
2018-05-21T22:02:55.935Z,42.80
2018-05-21T22:05:25.093Z,43.00
2018-05-21T22:07:54.142Z,43.00
2018-05-21T22:10:23.364Z,43.10
2018-05-21T22:12:52.549Z,43.40
2018-05-21T22:15:20.839Z,43.50
2018-05-21T22:17:49.968Z,43.70
2018-05-21T22:20:18.277Z,43.70
2018-05-21T22:22:46.713Z,44.00
2018-05-21T22:25:15.960Z,44.00
2018-05-21T22:27:45.058Z,44.20
2018-05-21T22:30:15.106Z,44.20
2018-05-21T22:32:44.055Z,44.30
2018-05-21T22:35:16.843Z,44.40
2018-05-21T22:37:45.333Z,44.60
2018-05-21T22:40:18.684Z,45.00
2018-05-21T22:42:48.483Z,45.00
2018-05-21T22:45:17.600Z,45.10
2018-05-21T22:47:46.443Z,45.40
2018-05-21T22:50:16.110Z,45.70
2018-05-21T22:52:45.540Z,45.90
2018-05-21T22:55:14.048Z,45.90
2018-05-21T22:57:43.476Z,45.80
2018-05-21T23:00:11.786Z,45.80
2018-05-21T23:02:40.650Z,46.10
2018-05-21T23:05:09.019Z,46.20
2018-05-21T23:07:37.353Z,46.30
2018-05-21T23:10:08.633Z,46.30
2018-05-21T23:12:37.220Z,46.40
2018-05-21T23:15:05.662Z,47.30
2018-05-21T23:17:39.223Z,46.80
2018-05-21T23:20:08.136Z,46.80
2018-05-21T23:22:45.080Z,46.70
2018-05-21T23:25:13.590Z,46.90
2018-05-21T23:27:43.117Z,46.80
2018-05-21T23:30:12.385Z,47.20
2018-05-21T23:32:42.481Z,46.90
2018-05-21T23:35:10.793Z,47.00
2018-05-21T23:37:39.146Z,47.20
2018-05-21T23:40:07.547Z,47.20
2018-05-21T23:42:37.629Z,47.00
2018-05-21T23:45:06.116Z,46.90
2018-05-21T23:47:34.855Z,47.00
2018-05-21T23:50:08.222Z,47.20
2018-05-21T23:52:42.496Z,47.10
2018-05-21T23:55:14.114Z,47.10
2018-05-21T23:57:55.103Z,47.20
